createdAt,value
2019-02-04T00:00:42.593Z,100521.73
2019-02-04T00:03:16.677Z,100530.09
2019-02-04T00:05:48.837Z,100535.34
2019-02-04T00:08:20.891Z,100541.14
2019-02-04T00:10:53.037Z,100545.89
2019-02-04T00:13:25.365Z,100540.45
2019-02-04T00:15:57.518Z,100536.72
2019-02-04T00:18:29.637Z,100532.42
2019-02-04T00:21:02.379Z,100532.89
2019-02-04T00:23:34.510Z,100535.84
2019-02-04T00:26:06.656Z,100536.55
2019-02-04T00:28:38.783Z,100532.52
2019-02-04T00:31:11.914Z,100536.42
2019-02-04T00:33:44.218Z,100531.81
2019-02-04T00:36:16.358Z,100527.27
2019-02-04T00:38:48.490Z,100532.33
2019-02-04T00:41:20.653Z,100540.30
2019-02-04T00:43:52.779Z,100541.80
2019-02-04T00:46:25.027Z,100541.16
2019-02-04T00:48:57.151Z,100532.94
2019-02-04T00:51:29.372Z,100532.55
2019-02-04T00:54:01.504Z,100530.94
2019-02-04T00:56:33.661Z,100532.14
2019-02-04T00:59:05.811Z,100539.83
2019-02-04T01:01:37.958Z,100537.94
2019-02-04T01:04:10.082Z,100540.86
2019-02-04T01:06:42.248Z,100546.58
2019-02-04T01:09:15.150Z,100548.57
2019-02-04T01:11:47.468Z,100555.24
2019-02-04T01:14:19.667Z,100555.41
2019-02-04T01:17:03.035Z,100559.77
2019-02-04T01:19:25.659Z,100557.08
2019-02-04T01:21:57.902Z,100557.34
2019-02-04T01:24:30.106Z,100561.98
2019-02-04T01:27:02.274Z,100566.48
2019-02-04T01:29:34.743Z,100574.02
2019-02-04T01:32:07.455Z,100570.77
2019-02-04T01:34:39.504Z,100569.81
2019-02-04T01:37:11.669Z,100578.98
2019-02-04T01:39:43.797Z,100573.90
2019-02-04T01:42:15.953Z,100572.16
2019-02-04T01:44:48.104Z,100565.89
2019-02-04T01:47:20.222Z,100566.53
2019-02-04T01:49:52.343Z,100570.70
2019-02-04T01:52:24.578Z,100582.38
2019-02-04T01:54:57.091Z,100582.81
2019-02-04T01:57:29.239Z,100589.74
2019-02-04T02:00:01.386Z,100592.75
2019-02-04T02:02:33.778Z,100586.04
2019-02-04T02:05:06.514Z,100589.94
2019-02-04T02:07:38.689Z,100591.14
2019-02-04T02:10:13.663Z,100591.78
2019-02-04T02:12:45.811Z,100593.66
2019-02-04T02:15:18.018Z,100595.05
2019-02-04T02:17:50.798Z,100592.40
2019-02-04T02:20:26.129Z,100602.33
2019-02-04T02:22:58.364Z,100600.55
2019-02-04T02:25:30.495Z,100599.35
2019-02-04T02:28:02.655Z,100604.73
2019-02-04T02:30:34.922Z,100605.63
2019-02-04T02:33:07.201Z,100607.47
2019-02-04T02:35:39.334Z,100608.23
2019-02-04T02:38:11.588Z,100614.15
2019-02-04T02:40:44.087Z,100615.26
2019-02-04T02:43:16.245Z,100617.04
2019-02-04T02:45:48.368Z,100619.70
2019-02-04T02:48:20.549Z,100618.00
2019-02-04T02:50:52.673Z,100620.81
2019-02-04T02:53:26.357Z,100616.39
2019-02-04T02:55:58.480Z,100616.59
2019-02-04T02:58:31.709Z,100620.09
2019-02-04T03:01:03.835Z,100624.34
2019-02-04T03:03:35.988Z,100617.26
2019-02-04T03:06:08.164Z,100625.54
2019-02-04T03:08:40.340Z,100626.70
2019-02-04T03:11:12.402Z,100622.92
2019-02-04T03:13:44.634Z,100627.06
2019-02-04T03:16:17.135Z,100627.25
2019-02-04T03:18:49.375Z,100633.03
2019-02-04T03:21:21.503Z,100629.68
2019-02-04T03:23:53.662Z,100630.44
2019-02-04T03:26:25.779Z,100633.78
2019-02-04T03:28:58.019Z,100627.81
2019-02-04T03:31:30.371Z,100630.11
2019-02-04T03:34:02.646Z,100625.50
2019-02-04T03:36:34.766Z,100631.05
2019-02-04T03:39:09.279Z,100640.56
2019-02-04T03:41:41.397Z,100649.47
2019-02-04T03:44:13.562Z,100645.23
2019-02-04T03:46:45.612Z,100647.44
2019-02-04T03:49:17.779Z,100642.52
2019-02-04T03:51:49.958Z,100646.18
2019-02-04T03:54:22.160Z,100648.80
2019-02-04T03:56:54.351Z,100657.55
2019-02-04T03:59:26.590Z,100657.52
2019-02-04T04:01:58.715Z,100654.51
2019-02-04T04:04:30.985Z,100658.39
2019-02-04T04:07:03.086Z,100654.78
2019-02-04T04:09:35.245Z,100658.63
2019-02-04T04:12:07.372Z,100662.74
2019-02-04T04:14:39.697Z,100661.19
2019-02-04T04:17:11.814Z,100663.30
2019-02-04T04:19:44.245Z,100664.53
2019-02-04T04:22:16.461Z,100664.46
2019-02-04T04:24:48.591Z,100665.59
2019-02-04T04:27:20.719Z,100660.88
2019-02-04T04:29:52.886Z,100658.88
2019-02-04T04:32:24.992Z,100658.25
2019-02-04T04:34:57.211Z,100657.48
2019-02-04T04:37:29.363Z,100654.41
2019-02-04T04:40:01.437Z,100652.43
2019-02-04T04:42:33.640Z,100651.86
2019-02-04T04:45:06.196Z,100659.59
2019-02-04T04:47:38.360Z,100661.92
2019-02-04T04:50:10.987Z,100660.41
2019-02-04T04:52:43.387Z,100662.17
2019-02-04T04:55:19.962Z,100660.53
2019-02-04T04:57:52.158Z,100661.41
2019-02-04T05:00:29.912Z,100663.84
2019-02-04T05:03:03.076Z,100672.20
2019-02-04T05:05:35.292Z,100668.73
2019-02-04T05:08:07.446Z,100673.22
2019-02-04T05:10:39.572Z,100676.92
2019-02-04T05:13:11.730Z,100681.65
2019-02-04T05:15:43.835Z,100687.97
2019-02-04T05:18:15.959Z,100695.38
2019-02-04T05:20:48.092Z,100692.25
2019-02-04T05:23:20.148Z,100697.89
2019-02-04T05:25:52.283Z,100700.80
2019-02-04T05:28:24.400Z,100703.88
2019-02-04T05:30:56.547Z,100701.19
2019-02-04T05:33:28.689Z,100692.41
2019-02-04T05:36:01.024Z,100690.05
2019-02-04T05:38:33.293Z,100695.20
2019-02-04T05:41:05.456Z,100695.77
2019-02-04T05:43:37.572Z,100690.67
2019-02-04T05:46:09.721Z,100696.62
2019-02-04T05:48:49.083Z,100708.09
2019-02-04T05:51:15.716Z,100705.34
2019-02-04T05:53:47.864Z,100709.03
2019-02-04T05:56:20.020Z,100711.07
2019-02-04T05:58:52.521Z,100716.50
2019-02-04T06:01:24.671Z,100709.34
2019-02-04T06:03:56.758Z,100707.85
2019-02-04T06:06:29.215Z,100703.73
2019-02-04T06:09:01.343Z,100703.70
2019-02-04T06:11:35.127Z,100693.80
2019-02-04T06:14:07.261Z,100695.96
2019-02-04T06:16:39.424Z,100689.07
2019-02-04T06:19:11.552Z,100687.09
2019-02-04T06:21:43.689Z,100685.64
2019-02-04T06:24:15.804Z,100679.95
2019-02-04T06:26:47.952Z,100673.75
2019-02-04T06:29:20.157Z,100672.26
2019-02-04T06:31:52.301Z,100670.09
2019-02-04T06:34:24.682Z,100664.09
2019-02-04T06:36:56.924Z,100667.80
2019-02-04T06:39:29.127Z,100679.00
2019-02-04T06:42:01.276Z,100680.95
2019-02-04T06:44:34.649Z,100681.74
2019-02-04T06:47:06.961Z,100684.81
2019-02-04T06:49:39.111Z,100692.41
2019-02-04T06:52:11.272Z,100697.66
2019-02-04T06:54:43.404Z,100699.55
2019-02-04T06:57:15.553Z,100700.97
2019-02-04T06:59:47.688Z,100708.02
2019-02-04T07:02:21.804Z,100712.11
2019-02-04T07:04:54.557Z,100720.30
2019-02-04T07:07:26.961Z,100718.53
2019-02-04T07:09:59.545Z,100732.00
2019-02-04T07:12:31.983Z,100737.48
2019-02-04T07:15:04.309Z,100730.56
2019-02-04T07:17:36.584Z,100729.19
2019-02-04T07:20:12.603Z,100737.75
2019-02-04T07:22:44.733Z,100744.02
2019-02-04T07:25:18.573Z,100741.84
2019-02-04T07:27:50.719Z,100745.17
2019-02-04T07:30:25.954Z,100749.58
2019-02-04T07:32:58.471Z,100749.84
2019-02-04T07:35:30.668Z,100761.46
2019-02-04T07:38:02.828Z,100755.59
2019-02-04T07:40:37.521Z,100754.45
2019-02-04T07:43:09.786Z,100760.45
2019-02-04T07:45:42.139Z,100762.08
2019-02-04T07:48:14.331Z,100762.84
2019-02-04T07:50:46.528Z,100767.36
2019-02-04T07:53:19.184Z,100771.61
2019-02-04T07:55:51.645Z,100772.97
2019-02-04T07:58:23.817Z,100776.94
2019-02-04T08:00:55.999Z,100778.16
2019-02-04T08:03:28.229Z,100782.08
2019-02-04T08:06:00.277Z,100780.11
2019-02-04T08:08:32.605Z,100780.75
2019-02-04T08:11:04.813Z,100775.12
2019-02-04T08:13:36.976Z,100777.59
2019-02-04T08:16:09.175Z,100766.34
2019-02-04T08:18:41.317Z,100764.45
2019-02-04T08:21:13.737Z,100766.53
2019-02-04T08:23:45.963Z,100768.30
2019-02-04T08:26:18.153Z,100770.19
2019-02-04T08:28:50.318Z,100766.74
2019-02-04T08:31:22.529Z,100775.95
2019-02-04T08:33:54.710Z,100764.91
2019-02-04T08:36:26.842Z,100762.95
2019-02-04T08:38:59.074Z,100762.37
2019-02-04T08:41:31.199Z,100765.27
2019-02-04T08:44:03.541Z,100767.98
2019-02-04T08:46:35.772Z,100764.43
2019-02-04T08:49:08.195Z,100768.58
2019-02-04T08:51:41.896Z,100771.39
2019-02-04T08:54:14.129Z,100762.11
2019-02-04T08:56:46.737Z,100762.77
2019-02-04T08:59:18.917Z,100766.47
2019-02-04T09:01:51.055Z,100764.81
2019-02-04T09:04:23.227Z,100761.59
2019-02-04T09:06:55.447Z,100763.91
2019-02-04T09:09:27.996Z,100760.02
2019-02-04T09:12:00.206Z,100751.03
2019-02-04T09:14:32.571Z,100749.16
2019-02-04T09:17:04.705Z,100737.09
2019-02-04T09:19:36.880Z,100737.97
2019-02-04T09:22:09.392Z,100741.12
2019-02-04T09:24:41.621Z,100741.77
2019-02-04T09:27:13.831Z,100734.24
2019-02-04T09:29:46.013Z,100735.62
2019-02-04T09:32:18.279Z,100729.08
2019-02-04T09:34:50.627Z,100730.62
2019-02-04T09:37:22.871Z,100725.98
2019-02-04T09:39:55.034Z,100723.98
2019-02-04T09:42:27.183Z,100726.97
2019-02-04T09:44:59.497Z,100729.27
2019-02-04T09:47:31.814Z,100732.53
2019-02-04T09:50:04.283Z,100735.96
2019-02-04T09:52:36.369Z,100741.06
2019-02-04T09:55:14.358Z,100746.37
2019-02-04T09:57:47.015Z,100747.91
2019-02-04T10:00:23.195Z,100748.70
2019-02-04T10:02:55.334Z,100739.96
2019-02-04T10:05:27.524Z,100745.48
2019-02-04T10:07:59.653Z,100741.61
2019-02-04T10:10:31.857Z,100745.02
2019-02-04T10:13:05.641Z,100744.47
2019-02-04T10:15:40.179Z,100737.17
2019-02-04T10:18:13.174Z,100740.42
2019-02-04T10:20:45.527Z,100738.34
2019-02-04T10:23:17.849Z,100731.13
2019-02-04T10:25:50.176Z,100728.06
2019-02-04T10:28:22.410Z,100721.43
2019-02-04T10:30:54.788Z,100720.80
2019-02-04T10:33:26.977Z,100719.97
2019-02-04T10:35:59.139Z,100719.97
2019-02-04T10:38:31.352Z,100712.39
2019-02-04T10:41:03.521Z,100699.09
2019-02-04T10:43:36.137Z,100704.16
2019-02-04T10:46:08.470Z,100695.33
2019-02-04T10:48:42.571Z,100689.84
2019-02-04T10:51:14.804Z,100682.08
2019-02-04T10:53:46.995Z,100676.67
2019-02-04T10:56:19.561Z,100666.23
2019-02-04T10:58:51.809Z,100663.00
2019-02-04T11:01:24.179Z,100658.97
2019-02-04T11:03:56.501Z,100652.97
2019-02-04T11:06:28.756Z,100650.69
2019-02-04T11:09:01.094Z,100649.95
2019-02-04T11:11:34.908Z,100646.70
2019-02-04T11:15:32.458Z,100644.56
2019-02-04T11:18:06.283Z,100639.89
2019-02-04T11:20:38.511Z,100640.56
2019-02-04T11:23:10.835Z,100638.22
2019-02-04T11:25:43.401Z,100630.86
2019-02-04T11:28:16.207Z,100626.23
2019-02-04T11:31:08.690Z,100625.17
2019-02-04T11:33:40.905Z,100615.57
2019-02-04T11:36:13.336Z,100619.22
2019-02-04T11:38:45.460Z,100613.52
2019-02-04T11:41:17.651Z,100609.55
2019-02-04T11:43:49.813Z,100608.70
2019-02-04T11:46:21.991Z,100606.72
2019-02-04T11:48:54.314Z,100601.31
2019-02-04T11:51:26.456Z,100599.09
2019-02-04T11:53:58.693Z,100594.02
2019-02-04T11:56:30.898Z,100598.06
2019-02-04T11:59:03.145Z,100602.64
2019-02-04T12:01:35.709Z,100597.59
2019-02-04T12:04:07.862Z,100595.75
2019-02-04T12:06:40.098Z,100594.93
2019-02-04T12:09:12.260Z,100597.33
2019-02-04T12:11:44.466Z,100593.95
2019-02-04T12:14:16.624Z,100587.75
2019-02-04T12:16:48.983Z,100583.38
2019-02-04T12:19:21.146Z,100584.91
2019-02-04T12:21:53.304Z,100585.66
2019-02-04T12:24:25.550Z,100582.82
2019-02-04T12:26:57.751Z,100581.02
2019-02-04T12:29:29.913Z,100582.55
2019-02-04T12:32:02.044Z,100580.75
2019-02-04T12:34:34.273Z,100579.45
2019-02-04T12:37:06.496Z,100583.02
2019-02-04T12:39:38.660Z,100581.59
2019-02-04T12:42:11.022Z,100575.17
2019-02-04T12:44:43.366Z,100573.61
2019-02-04T12:47:15.768Z,100574.69
2019-02-04T12:49:48.300Z,100570.67
2019-02-04T12:52:20.530Z,100567.05
2019-02-04T12:54:52.684Z,100568.23
2019-02-04T12:57:24.846Z,100563.03
2019-02-04T12:59:57.089Z,100560.83
2019-02-04T13:02:29.292Z,100554.83
2019-02-04T13:05:01.445Z,100558.92
2019-02-04T13:07:34.405Z,100552.47
2019-02-04T13:10:07.574Z,100550.54
2019-02-04T13:12:39.953Z,100551.91
2019-02-04T13:15:15.979Z,100549.22
2019-02-04T13:17:48.421Z,100548.45
2019-02-04T13:20:21.091Z,100547.12
2019-02-04T13:22:53.491Z,100543.39
2019-02-04T13:25:28.764Z,100550.30
2019-02-04T13:28:02.221Z,100554.01
2019-02-04T13:30:35.572Z,100550.85
2019-02-04T13:33:07.858Z,100551.30
2019-02-04T13:35:40.650Z,100551.78
2019-02-04T13:38:13.040Z,100550.75
2019-02-04T13:40:45.468Z,100550.91
2019-02-04T13:43:17.765Z,100548.31
2019-02-04T13:45:50.092Z,100545.13
2019-02-04T13:48:22.411Z,100540.02
2019-02-04T13:50:54.768Z,100538.44
2019-02-04T13:53:27.257Z,100533.99
2019-02-04T13:55:59.696Z,100524.63
2019-02-04T13:58:32.004Z,100528.63
2019-02-04T14:01:04.167Z,100520.08
2019-02-04T14:03:36.293Z,100526.67
2019-02-04T14:06:09.708Z,100521.03
2019-02-04T14:08:42.377Z,100522.17
2019-02-04T14:11:14.515Z,100521.77
2019-02-04T14:13:46.646Z,100522.56
2019-02-04T14:16:18.876Z,100522.43
2019-02-04T14:18:52.079Z,100521.84
2019-02-04T14:21:24.489Z,100512.95
2019-02-04T14:23:58.040Z,100512.93
2019-02-04T14:26:30.202Z,100508.86
2019-02-04T14:29:03.499Z,100508.56
2019-02-04T14:31:35.660Z,100507.45
2019-02-04T14:34:07.877Z,100509.73
2019-02-04T14:36:40.045Z,100510.33
2019-02-04T14:39:15.579Z,100507.71
2019-02-04T14:41:47.916Z,100507.45
2019-02-04T14:44:56.107Z,100504.49
2019-02-04T14:48:06.295Z,100498.43
2019-02-04T14:51:19.176Z,100487.39
2019-02-04T14:54:40.429Z,100480.55
2019-02-04T14:57:52.950Z,100482.48
2019-02-04T15:01:19.600Z,100480.91
2019-02-04T15:04:53.798Z,100479.05
2019-02-04T15:08:33.392Z,100471.09
2019-02-04T15:12:17.899Z,100470.98
2019-02-04T15:15:29.113Z,100471.39
2019-02-04T15:18:56.578Z,100463.46
2019-02-04T15:22:33.398Z,100465.17
2019-02-04T15:25:21.913Z,100460.17
2019-02-04T15:28:41.425Z,100454.94
2019-02-04T15:32:14.980Z,100450.73
2019-02-04T15:35:15.730Z,100448.82
2019-02-04T15:38:35.519Z,100443.80
2019-02-04T15:41:41.566Z,100436.00
2019-02-04T15:44:55.731Z,100432.75
2019-02-04T15:47:55.427Z,100429.20
2019-02-04T15:51:20.528Z,100431.58
2019-02-04T15:53:53.373Z,100431.33
2019-02-04T15:56:25.626Z,100424.86
2019-02-04T15:58:57.736Z,100426.13
2019-02-04T16:01:30.894Z,100425.72
2019-02-04T16:04:25.875Z,100430.72
2019-02-04T16:06:58.410Z,100431.30
2019-02-04T16:09:31.197Z,100436.50
2019-02-04T16:12:03.338Z,100438.91
2019-02-04T16:14:36.095Z,100445.96
2019-02-04T16:17:11.096Z,100442.05
2019-02-04T16:19:43.257Z,100444.50
2019-02-04T16:22:16.193Z,100448.84
2019-02-04T16:24:48.402Z,100443.92
2019-02-04T16:27:21.008Z,100441.38
2019-02-04T16:29:53.567Z,100440.95
2019-02-04T16:32:25.804Z,100445.65
2019-02-04T16:34:57.958Z,100441.48
2019-02-04T16:37:30.089Z,100444.67
2019-02-04T16:40:02.237Z,100446.13
2019-02-04T16:42:34.728Z,100450.31
2019-02-04T16:45:07.492Z,100449.96
2019-02-04T16:47:39.661Z,100450.53
2019-02-04T16:50:17.395Z,100446.61
2019-02-04T16:52:49.542Z,100450.19
2019-02-04T16:55:21.709Z,100443.84
2019-02-04T16:57:54.541Z,100444.84
2019-02-04T17:00:30.063Z,100445.50
2019-02-04T17:03:02.678Z,100447.90
2019-02-04T17:05:34.876Z,100446.86
2019-02-04T17:08:07.188Z,100450.64
2019-02-04T17:10:39.442Z,100449.46
2019-02-04T17:13:11.746Z,100443.81
2019-02-04T17:15:43.904Z,100447.35
2019-02-04T17:18:16.100Z,100453.87
2019-02-04T17:20:48.430Z,100455.80
2019-02-04T17:23:22.514Z,100455.25
2019-02-04T17:25:55.074Z,100453.82
2019-02-04T17:28:27.318Z,100453.17
2019-02-04T17:30:59.557Z,100457.43
2019-02-04T17:33:31.704Z,100461.63
2019-02-04T17:36:03.937Z,100465.03
2019-02-04T17:38:36.372Z,100466.83
2019-02-04T17:41:10.143Z,100473.48
2019-02-04T17:43:43.462Z,100468.00
2019-02-04T17:46:15.615Z,100471.14
2019-02-04T17:48:48.069Z,100471.48
2019-02-04T17:51:20.370Z,100468.41
2019-02-04T17:53:52.478Z,100471.92
2019-02-04T17:56:24.722Z,100480.89
2019-02-04T17:58:57.097Z,100478.58
2019-02-04T18:01:29.648Z,100481.09
2019-02-04T18:04:01.875Z,100479.21
2019-02-04T18:06:34.049Z,100481.73
2019-02-04T18:09:10.045Z,100477.86
2019-02-04T18:11:42.542Z,100476.05
2019-02-04T18:14:14.736Z,100476.75
2019-02-04T18:16:46.893Z,100475.71
2019-02-04T18:19:19.165Z,100477.37
2019-02-04T18:21:51.343Z,100482.59
2019-02-04T18:24:23.470Z,100485.26
2019-02-04T18:26:55.616Z,100485.91
2019-02-04T18:29:28.811Z,100487.75
2019-02-04T18:32:01.245Z,100488.06
2019-02-04T18:34:34.336Z,100487.84
2019-02-04T18:37:07.161Z,100490.95
2019-02-04T18:39:39.407Z,100495.56
2019-02-04T18:42:11.729Z,100496.38
2019-02-04T18:44:44.244Z,100501.15
2019-02-04T18:47:16.550Z,100493.86
2019-02-04T18:49:48.628Z,100495.13
2019-02-04T18:52:20.893Z,100495.48
2019-02-04T18:54:53.340Z,100493.73
2019-02-04T18:57:25.596Z,100493.94
2019-02-04T18:59:57.726Z,100491.02
2019-02-04T19:02:30.715Z,100495.39
2019-02-04T19:05:02.940Z,100494.19
2019-02-04T19:07:35.690Z,100492.92
2019-02-04T19:10:09.353Z,100492.93
2019-02-04T19:12:41.627Z,100495.03
2019-02-04T19:15:17.483Z,100491.82
2019-02-04T19:17:51.213Z,100490.80
2019-02-04T19:20:23.969Z,100485.50
2019-02-04T19:22:56.265Z,100489.53
2019-02-04T19:25:28.399Z,100497.47
2019-02-04T19:28:00.558Z,100491.14
2019-02-04T19:31:05.470Z,100494.09
2019-02-04T19:33:37.728Z,100500.16
2019-02-04T19:36:11.412Z,100494.77
2019-02-04T19:38:43.930Z,100496.96
2019-02-04T19:41:16.077Z,100491.51
2019-02-04T19:43:48.243Z,100494.11
2019-02-04T19:46:20.444Z,100493.83
2019-02-04T19:48:52.643Z,100487.45
2019-02-04T19:51:24.994Z,100491.75
2019-02-04T19:53:57.226Z,100490.12
2019-02-04T19:56:29.364Z,100492.53
2019-02-04T19:59:01.667Z,100492.78
2019-02-04T20:01:33.806Z,100494.81
2019-02-04T20:04:06.056Z,100493.99
2019-02-04T20:06:38.271Z,100490.30
2019-02-04T20:09:14.427Z,100492.72
2019-02-04T20:11:46.630Z,100493.46
2019-02-04T20:14:19.238Z,100494.97
2019-02-04T20:16:51.530Z,100496.34
2019-02-04T20:19:23.862Z,100490.56
2019-02-04T20:21:56.081Z,100483.61
2019-02-04T20:24:33.181Z,100483.94
2019-02-04T20:27:02.291Z,100487.55
2019-02-04T20:29:34.530Z,100487.87
2019-02-04T20:32:06.667Z,100487.63
2019-02-04T20:34:39.139Z,100489.08
2019-02-04T20:37:11.370Z,100487.91
2019-02-04T20:39:43.499Z,100484.30
2019-02-04T20:42:15.639Z,100484.14
2019-02-04T20:44:48.855Z,100481.84
2019-02-04T20:47:21.302Z,100476.70
2019-02-04T20:49:53.494Z,100475.22
2019-02-04T20:52:25.708Z,100477.53
2019-02-04T20:54:58.055Z,100477.00
2019-02-04T20:57:30.130Z,100472.92
2019-02-04T21:00:02.443Z,100477.20
2019-02-04T21:02:36.195Z,100474.51
2019-02-04T21:05:08.485Z,100473.56
2019-02-04T21:07:40.838Z,100478.89
2019-02-04T21:10:17.570Z,100474.31
2019-02-04T21:12:49.721Z,100478.39
2019-02-04T21:15:22.959Z,100474.82
2019-02-04T21:17:55.097Z,100476.60
2019-02-04T21:20:27.734Z,100469.98
2019-02-04T21:22:59.874Z,100469.33
2019-02-04T21:25:32.107Z,100464.49
2019-02-04T21:28:04.342Z,100464.17
2019-02-04T21:30:42.629Z,100469.77
2019-02-04T21:33:14.780Z,100471.86
2019-02-04T21:36:05.967Z,100477.36
2019-02-04T21:38:38.274Z,100477.55
2019-02-04T21:41:10.515Z,100483.11
2019-02-04T21:43:42.724Z,100486.93
2019-02-04T21:46:15.343Z,100502.39
2019-02-04T21:48:47.514Z,100497.42
2019-02-04T21:51:19.853Z,100494.22
2019-02-04T21:53:51.992Z,100496.58
2019-02-04T21:56:24.150Z,100494.73
2019-02-04T21:58:56.462Z,100490.08
2019-02-04T22:01:28.632Z,100488.42
2019-02-04T22:04:00.843Z,100487.48
2019-02-04T22:06:33.086Z,100486.61
2019-02-04T22:09:08.177Z,100485.34
2019-02-04T22:11:40.713Z,100491.00
2019-02-04T22:14:13.217Z,100492.86
2019-02-04T22:16:45.642Z,100494.05
2019-02-04T22:19:17.849Z,100499.53
2019-02-04T22:21:50.440Z,100498.05
2019-02-04T22:24:22.755Z,100501.94
2019-02-04T22:26:55.171Z,100496.55
2019-02-04T22:29:27.489Z,100490.84
2019-02-04T22:31:59.882Z,100491.89
2019-02-04T22:34:32.594Z,100489.33
2019-02-04T22:37:04.985Z,100489.11
2019-02-04T22:39:37.126Z,100484.14
2019-02-04T22:42:09.362Z,100481.67
2019-02-04T22:44:41.500Z,100480.56
2019-02-04T22:47:13.661Z,100483.95
2019-02-04T22:49:45.888Z,100486.89
2019-02-04T22:52:18.123Z,100479.32
2019-02-04T22:54:50.259Z,100470.70
2019-02-04T22:57:22.514Z,100474.56
2019-02-04T22:59:55.020Z,100480.12
2019-02-04T23:02:27.379Z,100486.50
2019-02-04T23:04:59.617Z,100485.89
2019-02-04T23:07:31.956Z,100486.30
2019-02-04T23:10:05.134Z,100487.13
2019-02-04T23:12:37.295Z,100490.91
2019-02-04T23:15:09.730Z,100491.77
2019-02-04T23:17:41.863Z,100488.91
2019-02-04T23:20:14.288Z,100487.49
2019-02-04T23:22:46.711Z,100486.14
2019-02-04T23:25:27.825Z,100489.80
2019-02-04T23:27:59.976Z,100484.26
2019-02-04T23:30:32.205Z,100487.29
2019-02-04T23:33:04.915Z,100491.83
2019-02-04T23:35:37.042Z,100489.45
2019-02-04T23:38:09.290Z,100489.00
2019-02-04T23:40:41.429Z,100490.83
2019-02-04T23:43:13.807Z,100490.33
2019-02-04T23:45:46.115Z,100497.02
2019-02-04T23:48:19.728Z,100499.62
2019-02-04T23:50:51.881Z,100506.83
2019-02-04T23:53:24.047Z,100507.72
2019-02-04T23:55:56.189Z,100508.89
2019-02-04T23:58:29.426Z,100505.74
